Rechercher aéroport 
image banner adimage banner ad
image banner ad

FQLC - Lichinga / National

Situé à Lichinga, Mozambique

ICAO - FQLC, IATA - VXC

Données fournies par Airmate  

Information générale

Coordonnées: S13°16'28" E35°15'53"
Élévation : 4491 feet MSL.
 
Voir autres Aéroports à Niassa Province

Données opérationnelles

Accessible au public
Heure actuelle UTC:
Heure actuelle locale:
Météo
METAR: FQLC 260800Z 07006KT 360V110 9999 BKN016 FEW020CB SCT070 22/18 Q1022 RMK CB TO NE/S/W
TAF: TAF FQLC 260400Z 2606/2706 30010KT 9999 BKN016 FEW020CB TX26/2613Z TN16/2703Z PROB30 TEMPO 2606/2612 5000 TSRA BKN020 FEW025CB BECMG 2612/2614 09010KT BECMG 2618/2620 22010KT
Voir NOTAMs / SUP AIP / TFR affectant cet aéroport [VIEW]
Fréquences de communication: [VIEW]

Pistes:

Identifiant RWYQFULongueur (ft)Largeur (ft)SurfaceLDA (ft)
0871°8300148ASP
268300148

Coordonnées de l'aéroport

Adresse: Lichinga Mozambique

Vue satellite de FQLC